Time;durP1;ratioP1;P1;durP2;ratioP2;P2;SDS_P1;SDS_P2;PMS_P1;PMS_P2;Temp;Humidity;BMP_temperature;BMP_pressure;BME280_temperature;BME280_humidity;BME280_pressure;Samples;Min_cycle;Max_cycle;Signal;HPM_P1;HPM_P2
2024/02/11 00:00:14;;;;;;;26.35;5.25;;;11.50;99.90;;;;;;6243873;23;20370;-72
2024/02/11 00:02:40;;;;;;;11.07;4.20;;;11.50;99.90;;;;;;6245708;23;20034;-73
2024/02/11 00:05:09;;;;;;;10.73;3.90;;;11.40;99.90;;;;;;6245560;22;20072;-73
2024/02/11 00:07:41;;;;;;;13.50;4.20;;;11.50;99.90;;;;;;6243341;23;20339;-75
2024/02/11 00:10:07;;;;;;;15.57;4.38;;;11.50;99.90;;;;;;6245488;23;20000;-72
2024/02/11 00:12:33;;;;;;;14.60;4.28;;;11.50;99.90;;;;;;6245118;22;20008;-73
2024/02/11 00:15:01;;;;;;;13.18;3.53;;;11.50;99.90;;;;;;6245645;22;20000;-73
2024/02/11 00:17:27;;;;;;;9.48;3.95;;;11.50;99.90;;;;;;6245394;23;20030;-75
2024/02/11 00:19:52;;;;;;;11.00;4.35;;;11.50;99.90;;;;;;6245863;22;20001;-73
2024/02/11 00:22:18;;;;;;;11.13;3.13;;;11.40;99.90;;;;;;6245348;22;20000;-73
2024/02/11 00:24:44;;;;;;;12.27;2.92;;;11.40;99.90;;;;;;6244657;23;20003;-73
2024/02/11 00:27:12;;;;;;;9.98;3.20;;;11.40;99.90;;;;;;6244435;23;20004;-74
2024/02/11 00:29:40;;;;;;;11.60;2.90;;;11.40;99.90;;;;;;6244689;22;20127;-73
2024/02/11 00:32:06;;;;;;;6.38;3.17;;;11.40;99.90;;;;;;6244981;22;20022;-73
2024/02/11 00:34:32;;;;;;;11.13;3.00;;;11.40;99.90;;;;;;6245559;22;20015;-73
2024/02/11 00:36:58;;;;;;;12.73;3.17;;;11.40;99.90;;;;;;6245051;22;20378;-73
2024/02/11 00:39:24;;;;;;;17.08;3.38;;;11.40;99.90;;;;;;6242245;23;20087;-73
2024/02/11 00:41:51;;;;;;;10.57;3.33;;;11.40;99.90;;;;;;6244292;22;20435;-73
2024/02/11 00:44:17;;;;;;;15.45;3.45;;;11.40;99.90;;;;;;6245785;22;20299;-74
2024/02/11 00:46:43;;;;;;;11.05;3.30;;;11.40;99.90;;;;;;6245642;23;20004;-73
2024/02/11 00:49:09;;;;;;;8.82;3.35;;;11.40;99.90;;;;;;6245446;23;20074;-73
2024/02/11 01:10:02;;;;;;;12.25;3.53;;;11.40;99.90;;;;;;6122968;23;20057;-73
2024/02/11 01:15:55;;;;;;;11.27;3.25;;;11.40;99.90;;;;;;6006036;23;20407;-73
2024/02/11 01:18:21;;;;;;;8.85;3.28;;;11.40;99.90;;;;;;6135144;23;20005;-73
2024/02/11 01:20:48;;;;;;;7.97;3.80;;;11.40;99.90;;;;;;6243904;23;20374;-73
2024/02/11 01:23:15;;;;;;;9.50;3.63;;;11.40;99.90;;;;;;6244374;23;20046;-73
2024/02/11 01:25:41;;;;;;;11.18;4.20;;;11.40;99.90;;;;;;6244219;23;20343;-73
2024/02/11 01:28:07;;;;;;;12.52;3.33;;;11.40;99.90;;;;;;6244060;23;20035;-72
2024/02/11 01:30:33;;;;;;;10.25;3.97;;;11.40;99.90;;;;;;6244000;23;20007;-73
2024/02/11 01:32:59;;;;;;;8.38;3.38;;;11.40;99.90;;;;;;6244175;23;20308;-73
2024/02/11 01:35:25;;;;;;;9.40;3.63;;;11.40;99.90;;;;;;6217599;23;20006;-73
2024/02/11 01:37:51;;;;;;;11.48;4.38;;;11.40;99.90;;;;;;6244541;23;20462;-73
2024/02/11 01:40:18;;;;;;;12.43;4.22;;;11.50;99.90;;;;;;6244727;23;19996;-73
2024/02/11 01:42:47;;;;;;;10.25;4.65;;;11.50;99.90;;;;;;6244399;23;20016;-73
2024/02/11 01:45:14;;;;;;;12.70;4.20;;;11.40;99.90;;;;;;6244134;23;20047;-73
2024/02/11 01:47:43;;;;;;;9.50;4.40;;;11.40;99.90;;;;;;6244092;23;20323;-73
2024/02/11 01:50:13;;;;;;;8.65;4.05;;;11.50;99.90;;;;;;6243853;23;20008;-73
2024/02/11 01:52:40;;;;;;;14.05;4.78;;;11.50;99.90;;;;;;6243804;23;20395;-73
2024/02/11 01:55:09;;;;;;;11.07;4.00;;;11.50;99.90;;;;;;6244115;22;20288;-73
2024/02/11 01:57:37;;;;;;;10.55;4.53;;;11.50;99.90;;;;;;6242795;23;20079;-73
2024/02/11 02:00:04;;;;;;;8.80;4.53;;;11.50;99.90;;;;;;6241126;22;20435;-73
2024/02/11 02:02:31;;;;;;;13.65;4.40;;;11.40;99.90;;;;;;6242165;22;20036;-73
2024/02/11 02:04:59;;;;;;;12.15;4.22;;;11.50;99.90;;;;;;6243561;22;20486;-73
2024/02/11 02:07:25;;;;;;;11.73;4.03;;;11.50;99.90;;;;;;6245107;22;20438;-73
2024/02/11 02:09:55;;;;;;;12.02;4.32;;;11.50;99.90;;;;;;6245437;22;20007;-72
2024/02/11 02:12:21;;;;;;;11.73;4.50;;;11.50;99.90;;;;;;6245433;22;20488;-73
2024/02/11 02:14:49;;;;;;;11.70;4.13;;;11.50;99.90;;;;;;6245174;22;20063;-73
2024/02/11 02:17:14;;;;;;;10.93;3.50;;;11.50;99.90;;;;;;6244836;22;20330;-73
2024/02/11 02:19:40;;;;;;;11.90;3.70;;;11.50;99.90;;;;;;6244098;23;20004;-73
2024/02/11 02:22:07;;;;;;;13.43;3.50;;;11.50;99.90;;;;;;6245319;22;20423;-73
2024/02/11 02:24:55;;;;;;;10.20;4.25;;;11.50;99.90;;;;;;6245901;22;20043;-72
2024/02/11 02:44:59;;;;;;;5.88;2.95;;;11.40;99.90;;;;;;6065277;23;20101;-73
2024/02/11 02:51:40;;;;;;;10.48;3.10;;;11.40;99.90;;;;;;6004658;23;20017;-73
2024/02/11 02:54:06;;;;;;;6.63;1.85;;;11.40;99.90;;;;;;6087658;22;20359;-75
2024/02/11 02:56:34;;;;;;;9.00;1.83;;;11.40;99.90;;;;;;6245042;23;20015;-73
2024/02/11 02:59:08;;;;;;;8.75;1.83;;;11.50;99.90;;;;;;6245083;22;20000;-73
2024/02/11 03:01:38;;;;;;;6.30;1.85;;;11.50;99.90;;;;;;6244892;22;20374;-72
2024/02/11 03:04:08;;;;;;;10.48;2.08;;;11.50;99.90;;;;;;6244669;22;20054;-73
2024/02/11 03:06:34;;;;;;;8.23;2.42;;;11.40;99.90;;;;;;6244555;22;20064;-73
2024/02/11 03:09:04;;;;;;;7.70;2.03;;;11.40;99.90;;;;;;6243142;23;20384;-72
2024/02/11 03:11:30;;;;;;;10.93;2.47;;;11.50;99.90;;;;;;6245132;22;20374;-73
2024/02/11 03:13:55;;;;;;;15.43;2.63;;;11.40;99.90;;;;;;6244168;23;20016;-72
2024/02/11 03:16:21;;;;;;;7.35;1.65;;;11.50;99.90;;;;;;6245132;22;20000;-72
2024/02/11 03:18:47;;;;;;;5.95;2.20;;;11.50;99.90;;;;;;6245232;22;20011;-73
2024/02/11 03:21:15;;;;;;;7.45;1.70;;;11.50;99.90;;;;;;6245397;23;20000;-73
2024/02/11 03:23:41;;;;;;;7.43;2.33;;;11.50;99.90;;;;;;6244721;22;20024;-73
2024/02/11 03:26:10;;;;;;;5.35;1.65;;;11.40;99.90;;;;;;6244937;22;20004;-75
2024/02/11 03:28:40;;;;;;;6.15;2.10;;;11.40;99.90;;;;;;6245038;23;20015;-74
2024/02/11 03:31:07;;;;;;;5.20;1.92;;;11.50;99.90;;;;;;6246831;22;20493;-73
2024/02/11 03:33:33;;;;;;;7.13;2.20;;;11.50;99.90;;;;;;6246970;22;20012;-73
2024/02/11 03:36:00;;;;;;;5.90;2.40;;;11.50;99.90;;;;;;6246742;22;20087;-73
2024/02/11 03:38:26;;;;;;;9.38;2.28;;;11.50;99.90;;;;;;6245665;23;20020;-73
2024/02/11 03:40:53;;;;;;;7.68;2.22;;;11.50;99.90;;;;;;6246856;22;20008;-73
2024/02/11 03:43:19;;;;;;;5.55;2.40;;;11.40;99.90;;;;;;6246479;22;19996;-75
2024/02/11 03:45:49;;;;;;;6.70;2.28;;;11.40;99.90;;;;;;6246442;22;20008;-73
2024/02/11 03:48:18;;;;;;;6.97;2.10;;;11.40;99.90;;;;;;6246907;22;20004;-72
2024/02/11 03:50:45;;;;;;;7.63;2.42;;;11.40;99.90;;;;;;6246329;22;20004;-72
2024/02/11 03:53:14;;;;;;;7.25;2.17;;;11.40;99.90;;;;;;6247558;22;20100;-73
2024/02/11 03:55:41;;;;;;;6.95;2.20;;;11.40;99.90;;;;;;6246809;22;20092;-73
2024/02/11 03:58:10;;;;;;;5.18;1.90;;;11.40;99.90;;;;;;6246998;22;20028;-73
2024/02/11 04:20:59;;;;;;;7.90;1.85;;;11.40;99.90;;;;;;6095322;23;20017;-72
2024/02/11 04:26:51;;;;;;;3.25;1.63;;;11.40;99.90;;;;;;6039052;22;20018;-72
2024/02/11 04:29:19;;;;;;;6.00;1.95;;;11.40;99.90;;;;;;6246379;22;20008;-73
2024/02/11 04:31:45;;;;;;;6.35;1.90;;;11.40;99.90;;;;;;6244992;23;20398;-73
2024/02/11 04:34:10;;;;;;;5.25;1.80;;;11.40;99.90;;;;;;6246579;23;20381;-73
2024/02/11 04:36:40;;;;;;;9.07;2.00;;;11.40;99.90;;;;;;6244213;23;20000;-73
2024/02/11 04:39:08;;;;;;;9.85;3.38;;;11.40;99.90;;;;;;6244405;23;20331;-72
2024/02/11 04:41:37;;;;;;;5.72;2.20;;;11.40;99.90;;;;;;6245514;22;20376;-73
2024/02/11 04:44:06;;;;;;;7.20;2.70;;;11.40;99.90;;;;;;6246017;22;20072;-72
2024/02/11 04:46:32;;;;;;;5.20;1.80;;;11.30;99.90;;;;;;6246299;22;20011;-72
2024/02/11 04:48:59;;;;;;;4.40;1.80;;;11.40;99.90;;;;;;6246326;22;20007;-73
2024/02/11 04:51:28;;;;;;;4.00;1.13;;;11.30;99.90;;;;;;6246223;22;20079;-72
2024/02/11 04:53:57;;;;;;;1.45;0.90;;;11.40;99.90;;;;;;6245701;22;20035;-75
2024/02/11 04:56:25;;;;;;;2.90;1.23;;;11.40;99.90;;;;;;6245943;22;20499;-73
2024/02/11 04:58:52;;;;;;;4.10;1.10;;;11.40;99.90;;;;;;6245988;22;20502;-73
2024/02/11 05:01:18;;;;;;;2.85;1.08;;;11.40;99.90;;;;;;6245902;22;20450;-73
2024/02/11 05:03:46;;;;;;;3.33;1.10;;;11.40;99.90;;;;;;6245998;22;20033;-73
2024/02/11 05:06:17;;;;;;;2.17;0.45;;;11.40;99.90;;;;;;6243668;23;20422;-73
2024/02/11 05:08:44;;;;;;;3.20;0.73;;;11.40;99.90;;;;;;6244338;22;20493;-72
2024/02/11 05:11:10;;;;;;;6.07;1.25;;;11.30;99.90;;;;;;6245096;22;20084;-72
2024/02/11 05:13:37;;;;;;;1.35;0.50;;;11.40;99.90;;;;;;6244584;22;20016;-73
2024/02/11 05:16:05;;;;;;;1.83;0.60;;;11.30;99.90;;;;;;6243230;23;20088;-74
2024/02/11 05:18:32;;;;;;;3.10;0.70;;;11.40;99.90;;;;;;6245102;22;20011;-72
2024/02/11 05:21:02;;;;;;;1.98;0.85;;;11.30;99.90;;;;;;6245067;22;20330;-72
2024/02/11 05:23:29;;;;;;;2.05;0.80;;;11.30;99.90;;;;;;6244863;22;19993;-73
2024/02/11 05:25:57;;;;;;;6.85;1.05;;;11.30;99.90;;;;;;6246198;22;20346;-73
2024/02/11 05:28:23;;;;;;;5.22;1.50;;;11.30;99.90;;;;;;6246573;22;20000;-72
2024/02/11 05:30:50;;;;;;;4.05;1.30;;;11.30;99.90;;;;;;6246816;22;20000;-72
2024/02/11 05:33:17;;;;;;;2.15;0.90;;;11.30;99.90;;;;;;6246293;22;20018;-73
2024/02/11 05:35:43;;;;;;;2.53;1.10;;;11.30;99.90;;;;;;6246428;22;19996;-73
2024/02/11 06:02:12;;;;;;;1.55;0.90;;;11.20;99.90;;;;;;6152971;23;20111;-75
2024/02/11 06:04:39;;;;;;;2.47;0.68;;;11.20;99.90;;;;;;6276183;22;20339;-74
2024/02/11 06:07:06;;;;;;;1.55;0.45;;;11.20;99.90;;;;;;6276177;22;20448;-73
2024/02/11 06:09:32;;;;;;;1.50;0.75;;;11.10;99.90;;;;;;6274431;22;20337;-73
2024/02/11 06:11:58;;;;;;;2.33;0.70;;;11.20;99.90;;;;;;6275911;22;20042;-72
2024/02/11 06:14:24;;;;;;;1.90;1.23;;;11.10;99.90;;;;;;6276060;22;20046;-73
2024/02/11 06:16:50;;;;;;;2.17;0.65;;;11.20;99.90;;;;;;6275454;22;19996;-73
2024/02/11 06:19:16;;;;;;;2.95;0.80;;;11.20;99.90;;;;;;6275741;22;20003;-75
2024/02/11 06:21:41;;;;;;;1.92;0.40;;;11.20;99.90;;;;;;6276074;22;20031;-72
2024/02/11 06:24:08;;;;;;;1.23;0.35;;;11.20;99.90;;;;;;6275954;22;20006;-73
2024/02/11 06:26:34;;;;;;;3.47;0.47;;;11.20;99.90;;;;;;6276370;22;20003;-73
2024/02/11 06:29:01;;;;;;;1.73;0.40;;;11.20;99.90;;;;;;6275873;22;20027;-73
2024/02/11 06:31:27;;;;;;;1.50;0.40;;;11.20;99.90;;;;;;6275478;22;20000;-73
2024/02/11 06:33:53;;;;;;;1.52;0.40;;;11.10;99.90;;;;;;6275091;22;20153;-73
2024/02/11 06:36:19;;;;;;;1.88;0.70;;;11.20;99.90;;;;;;6274569;22;20433;-72
2024/02/11 06:38:45;;;;;;;0.88;0.50;;;11.10;99.90;;;;;;6275771;22;20034;-72
2024/02/11 06:41:11;;;;;;;1.20;0.65;;;11.20;99.90;;;;;;6275148;22;20489;-73
2024/02/11 06:43:40;;;;;;;2.13;0.70;;;11.20;99.90;;;;;;6275571;22;20034;-72
2024/02/11 06:46:05;;;;;;;2.90;1.23;;;11.20;99.90;;;;;;6275853;22;20035;-72
2024/02/11 06:48:31;;;;;;;1.95;0.95;;;11.20;99.90;;;;;;6275728;22;20023;-72
2024/02/11 06:50:57;;;;;;;2.92;0.90;;;11.20;99.90;;;;;;6274311;22;20054;-72
2024/02/11 06:53:23;;;;;;;1.50;0.82;;;11.20;99.90;;;;;;6275588;22;20057;-73
2024/02/11 06:55:49;;;;;;;1.25;0.73;;;11.20;99.90;;;;;;6275296;22;20038;-73
2024/02/11 06:58:15;;;;;;;1.67;0.80;;;11.20;99.90;;;;;;6248455;22;20337;-73
2024/02/11 07:00:40;;;;;;;4.00;0.90;;;11.20;99.90;;;;;;6276351;22;20023;-72
2024/02/11 07:03:08;;;;;;;3.05;0.98;;;11.20;99.90;;;;;;6277861;22;20082;-73
2024/02/11 07:05:34;;;;;;;1.95;0.50;;;11.20;99.90;;;;;;6278802;22;20028;-73
2024/02/11 07:08:00;;;;;;;2.95;0.57;;;11.20;99.90;;;;;;6278625;22;20059;-73
2024/02/11 07:10:26;;;;;;;1.42;0.50;;;11.30;99.90;;;;;;6278198;22;20000;-73
2024/02/11 07:13:18;;;;;;;2.60;0.60;;;11.20;99.90;;;;;;6278345;22;20110;-73
2024/02/11 07:17:00;;;;;;;1.45;0.70;;;11.30;99.90;;;;;;6154250;23;20001;-72
2024/02/11 07:33:23;;;;;;;1.77;0.60;;;11.30;99.90;;;;;;6097135;23;20065;-72
2024/02/11 07:39:24;;;;;;;2.42;1.05;;;11.40;99.90;;;;;;6124743;23;20122;-73
2024/02/11 07:41:51;;;;;;;6.93;1.10;;;11.40;99.90;;;;;;6124503;23;20006;-72
2024/02/11 07:44:17;;;;;;;3.22;1.10;;;11.40;99.90;;;;;;6160713;23;20280;-72
2024/02/11 07:46:43;;;;;;;4.10;1.08;;;11.40;99.90;;;;;;6221694;22;20330;-72
2024/02/11 07:49:10;;;;;;;1.92;0.93;;;11.40;99.90;;;;;;6277394;22;20003;-72
2024/02/11 07:51:37;;;;;;;5.85;1.25;;;11.40;99.90;;;;;;6276994;22;20000;-72
2024/02/11 07:54:03;;;;;;;2.78;1.10;;;11.40;99.90;;;;;;6276912;22;20372;-72
2024/02/11 07:56:29;;;;;;;3.15;0.93;;;11.40;99.90;;;;;;6249972;22;20350;-72
2024/02/11 07:58:56;;;;;;;4.95;1.02;;;11.40;99.90;;;;;;6276781;22;20130;-72
2024/02/11 08:01:23;;;;;;;4.75;1.02;;;11.40;99.90;;;;;;6273992;22;20046;-73
2024/02/11 08:03:49;;;;;;;2.15;0.93;;;11.40;99.90;;;;;;6273658;22;20011;-71
2024/02/11 08:06:14;;;;;;;3.60;1.05;;;11.40;99.90;;;;;;6273771;22;19999;-73
2024/02/11 08:08:40;;;;;;;2.38;1.33;;;11.40;99.90;;;;;;6248745;22;20008;-72
2024/02/11 08:11:06;;;;;;;1.90;0.80;;;11.50;99.90;;;;;;6276830;22;20002;-72
2024/02/11 08:13:35;;;;;;;3.28;1.08;;;11.50;99.90;;;;;;6249649;22;20019;-71
2024/02/11 08:16:03;;;;;;;2.25;0.80;;;11.40;99.90;;;;;;6276609;22;20006;-70
2024/02/11 08:18:29;;;;;;;2.33;1.00;;;11.50;99.90;;;;;;6277162;22;20015;-71
2024/02/11 08:20:56;;;;;;;4.30;1.15;;;11.50;99.90;;;;;;6276745;22;20002;-71
2024/02/11 08:23:24;;;;;;;4.20;1.02;;;11.50;99.90;;;;;;6248885;22;20307;-73
2024/02/11 08:25:50;;;;;;;3.33;1.23;;;11.60;99.90;;;;;;6277024;22;20057;-73
2024/02/11 08:28:16;;;;;;;4.07;1.40;;;11.60;99.90;;;;;;6277161;22;20330;-73
2024/02/11 08:30:43;;;;;;;3.20;1.20;;;11.60;99.90;;;;;;6276734;22;20000;-73
2024/02/11 08:33:09;;;;;;;2.58;1.35;;;11.60;99.90;;;;;;6250100;22;20019;-73
2024/02/11 08:35:36;;;;;;;4.05;0.90;;;11.70;99.90;;;;;;6277339;22;20020;-72
2024/02/11 08:38:03;;;;;;;7.47;1.33;;;11.70;99.90;;;;;;6277631;22;20311;-71
2024/02/11 08:40:30;;;;;;;4.43;0.88;;;11.70;99.90;;;;;;6277488;22;20000;-72
2024/02/11 08:42:56;;;;;;;8.80;1.52;;;11.70;99.90;;;;;;6277206;22;19999;-72
2024/02/11 08:45:22;;;;;;;5.88;0.90;;;11.80;99.90;;;;;;6277357;22;20057;-72
2024/02/11 08:51:11;;;;;;;6.18;1.10;;;11.80;99.90;;;;;;6241426;23;20484;-74
2024/02/11 09:04:23;;;;;;;6.95;2.22;;;11.80;99.90;;;;;;5970649;24;20381;-76
2024/02/11 09:07:22;;;;;;;3.67;1.23;;;11.90;99.90;;;;;;5980569;24;20035;-74
2024/02/11 09:09:44;;;;;;;2.28;1.00;;;11.90;99.90;;;;;;5979772;24;20019;-76
2024/02/11 09:12:10;;;;;;;5.63;1.02;;;11.90;99.90;;;;;;6032088;23;20387;-73
2024/02/11 09:14:38;;;;;;;5.60;1.20;;;11.90;99.90;;;;;;6228546;22;20377;-73
2024/02/11 09:17:07;;;;;;;9.23;1.33;;;11.90;99.90;;;;;;6245661;23;20083;-75
2024/02/11 09:19:33;;;;;;;7.35;1.50;;;11.90;99.90;;;;;;6245872;23;20035;-75
2024/02/11 09:21:59;;;;;;;12.50;1.50;;;11.90;99.90;;;;;;6243942;23;20003;-73
2024/02/11 09:24:25;;;;;;;11.10;1.50;;;11.90;99.90;;;;;;6243950;23;20032;-73
2024/02/11 09:26:51;;;;;;;9.68;1.45;;;11.90;99.90;;;;;;6244928;23;20334;-73
2024/02/11 09:29:20;;;;;;;8.20;1.95;;;12.00;99.90;;;;;;6244773;23;20011;-73
2024/02/11 09:31:46;;;;;;;13.40;1.60;;;12.00;99.90;;;;;;6244497;22;19996;-73
2024/02/11 09:34:12;;;;;;;11.65;2.17;;;12.00;99.90;;;;;;6242317;22;20469;-73
2024/02/11 09:36:39;;;;;;;11.80;2.15;;;12.10;99.90;;;;;;6242790;23;20352;-73
2024/02/11 09:39:05;;;;;;;12.02;1.95;;;12.00;99.90;;;;;;6217954;23;20000;-73
2024/02/11 09:41:32;;;;;;;10.70;1.50;;;12.00;99.90;;;;;;6245367;22;20008;-73
2024/02/11 09:44:04;;;;;;;10.93;1.58;;;12.00;99.90;;;;;;6245595;22;20471;-73
2024/02/11 09:46:37;;;;;;;7.33;1.50;;;12.00;99.90;;;;;;6244475;23;20008;-76
2024/02/11 09:49:29;;;;;;;;;;;12.00;99.90;;;;;;6246176;22;20301;-75
2024/02/11 09:51:57;;;;;;;9.43;1.63;;;12.00;99.90;;;;;;6240605;23;19899;-73
2024/02/11 09:54:25;;;;;;;8.65;1.55;;;12.00;99.90;;;;;;6245085;23;20004;-73
2024/02/11 09:56:51;;;;;;;5.95;1.20;;;12.00;99.90;;;;;;6246006;22;20046;-73
2024/02/11 09:59:17;;;;;;;7.88;1.45;;;12.10;99.90;;;;;;6242563;22;20008;-73
2024/02/11 10:01:43;;;;;;;4.10;0.80;;;12.10;99.90;;;;;;6242370;22;20000;-73
2024/02/11 10:04:11;;;;;;;7.88;1.23;;;12.20;99.90;;;;;;6242631;22;20011;-74
2024/02/11 10:06:42;;;;;;;2.03;0.90;;;12.20;99.90;;;;;;6244850;23;20368;-73
2024/02/11 10:09:10;;;;;;;5.05;1.10;;;12.30;99.90;;;;;;6242305;23;20008;-75
2024/02/11 10:11:39;;;;;;;6.93;0.98;;;12.30;99.90;;;;;;6243724;23;20326;-75
2024/02/11 10:14:13;;;;;;;11.23;2.97;;;12.30;99.90;;;;;;6244848;23;20326;-75
2024/02/11 10:16:42;;;;;;;9.63;1.30;;;12.30;99.90;;;;;;6246180;22;19996;-75
2024/02/11 10:19:09;;;;;;;7.22;1.23;;;12.30;99.90;;;;;;6246215;23;20000;-76
2024/02/11 10:42:08;;;;;;;21.80;3.95;;;12.40;99.90;;;;;;6152643;23;20016;-74
2024/02/11 10:47:57;;;;;;;27.15;5.00;;;12.40;99.90;;;;;;6107028;23;20006;-74
2024/02/11 10:50:24;;;;;;;19.23;3.20;;;12.40;99.90;;;;;;6127797;23;20332;-74
2024/02/11 10:52:55;;;;;;;24.13;4.38;;;12.40;99.90;;;;;;6189471;23;20329;-74
2024/02/11 10:55:24;;;;;;;17.88;2.95;;;12.40;99.90;;;;;;6245283;23;20095;-74
2024/02/11 10:57:55;;;;;;;22.25;4.38;;;12.40;99.90;;;;;;6244677;22;20031;-74
2024/02/11 11:00:22;;;;;;;24.10;5.00;;;12.40;99.90;;;;;;6244940;22;20004;-74
2024/02/11 11:02:58;;;;;;;20.38;3.90;;;12.40;99.90;;;;;;6244827;23;20330;-74
2024/02/11 11:05:30;;;;;;;13.50;3.38;;;12.40;99.90;;;;;;6244931;22;20071;-74
2024/02/11 11:07:57;;;;;;;18.05;4.07;;;12.40;99.90;;;;;;6245008;22;20441;-74
2024/02/11 11:10:28;;;;;;;22.08;4.20;;;12.40;99.90;;;;;;6245467;22;20004;-74
2024/02/11 11:12:56;;;;;;;22.83;5.07;;;12.40;99.90;;;;;;6245037;22;20426;-74
2024/02/11 11:15:22;;;;;;;20.60;4.78;;;12.40;99.90;;;;;;6245134;22;20339;-74
2024/02/11 11:17:48;;;;;;;18.23;4.43;;;12.40;99.90;;;;;;6244915;22;20492;-74
2024/02/11 11:20:15;;;;;;;27.52;3.92;;;12.40;99.90;;;;;;6244652;22;19996;-74
2024/02/11 11:22:48;;;;;;;20.00;5.25;;;12.40;99.90;;;;;;6245005;22;20004;-73
2024/02/11 11:25:16;;;;;;;23.10;4.22;;;12.40;99.90;;;;;;6244884;22;20007;-74
2024/02/11 11:27:42;;;;;;;21.45;4.85;;;12.40;99.90;;;;;;6244516;23;20003;-73
2024/02/11 11:30:10;;;;;;;22.80;4.32;;;12.40;99.90;;;;;;6243191;23;20026;-74
2024/02/11 11:32:45;;;;;;;29.10;4.18;;;12.40;99.90;;;;;;6244632;22;20339;-73
2024/02/11 11:35:16;;;;;;;25.13;4.55;;;12.40;99.90;;;;;;6244563;23;20000;-73
2024/02/11 11:37:43;;;;;;;25.58;4.80;;;12.40;99.90;;;;;;6244874;22;20000;-73
2024/02/11 11:40:10;;;;;;;25.85;5.88;;;12.40;99.90;;;;;;6244830;22;20005;-73
2024/02/11 11:42:36;;;;;;;19.13;4.43;;;12.40;99.90;;;;;;6244984;22;20007;-74
2024/02/11 11:45:10;;;;;;;23.25;4.97;;;12.40;99.90;;;;;;6244969;22;20011;-73
2024/02/11 11:47:37;;;;;;;27.98;5.43;;;12.40;99.90;;;;;;6245873;22;20012;-73
2024/02/11 11:50:06;;;;;;;29.48;5.35;;;12.40;99.90;;;;;;6246124;22;20020;-73
2024/02/11 11:52:33;;;;;;;23.58;5.13;;;12.40;99.90;;;;;;6246818;22;20012;-73
2024/02/11 11:55:00;;;;;;;27.67;4.90;;;12.40;99.90;;;;;;6247516;22;20008;-74
2024/02/11 11:57:26;;;;;;;27.75;5.00;;;12.40;99.90;;;;;;6246816;23;20007;-74
2024/02/11 11:59:57;;;;;;;30.33;6.93;;;12.40;99.90;;;;;;6242859;22;20012;-74
2024/02/11 12:10:28;;;;;;;22.15;5.15;;;12.40;99.90;;;;;;6153287;23;20005;-74
2024/02/11 12:13:33;;;;;;;26.90;6.55;;;12.40;99.90;;;;;;6071012;23;20164;-74
2024/02/11 12:23:14;;;;;;;27.90;4.97;;;12.30;99.90;;;;;;5866345;24;20045;-74
2024/02/11 12:26:23;;;;;;;28.00;6.97;;;12.30;99.90;;;;;;5867121;24;20063;-73
2024/02/11 12:29:03;;;;;;;22.02;5.40;;;12.30;99.90;;;;;;5869595;24;20402;-75
2024/02/11 12:31:29;;;;;;;29.95;5.65;;;12.30;99.90;;;;;;5976652;24;20092;-73
2024/02/11 12:33:55;;;;;;;30.58;5.68;;;12.30;99.90;;;;;;6105579;23;20345;-73
2024/02/11 12:36:23;;;;;;;22.85;4.22;;;12.30;99.90;;;;;;6245886;22;20325;-73
2024/02/11 12:38:50;;;;;;;20.60;4.93;;;12.30;99.90;;;;;;6245961;22;20088;-74
2024/02/11 12:41:17;;;;;;;24.00;5.07;;;12.40;99.90;;;;;;6246498;23;20271;-74
2024/02/11 12:43:47;;;;;;;21.95;4.97;;;12.40;99.90;;;;;;6246035;22;20004;-75
2024/02/11 12:46:13;;;;;;;24.45;4.80;;;12.40;99.90;;;;;;6244991;23;20008;-74
2024/02/11 12:48:41;;;;;;;23.90;4.80;;;12.40;99.90;;;;;;6244457;23;20023;-74
2024/02/11 12:51:11;;;;;;;26.92;5.82;;;12.30;99.90;;;;;;6244242;23;20379;-74
2024/02/11 12:53:40;;;;;;;25.13;4.82;;;12.30;99.90;;;;;;6245914;22;20065;-74
2024/02/11 12:56:10;;;;;;;20.10;5.00;;;12.40;99.90;;;;;;6245972;22;20075;-73
2024/02/11 12:58:40;;;;;;;21.83;5.65;;;12.30;99.90;;;;;;6245113;22;20079;-74
2024/02/11 13:01:10;;;;;;;24.10;4.70;;;12.40;99.90;;;;;;6245978;22;20470;-74
2024/02/11 13:03:39;;;;;;;29.30;5.47;;;12.40;99.90;;;;;;6244099;23;20380;-74
2024/02/11 13:06:05;;;;;;;19.45;4.60;;;12.40;99.90;;;;;;6245820;22;20426;-74
2024/02/11 13:08:32;;;;;;;18.88;4.60;;;12.40;99.90;;;;;;6245904;22;20418;-74
2024/02/11 13:10:59;;;;;;;19.85;5.10;;;12.40;99.90;;;;;;6245654;22;20330;-74
2024/02/11 13:13:25;;;;;;;14.07;3.85;;;12.40;99.90;;;;;;6245644;22;20342;-74
2024/02/11 13:15:51;;;;;;;22.35;4.80;;;12.40;99.90;;;;;;6246364;22;19996;-74
2024/02/11 13:18:18;;;;;;;14.90;4.22;;;12.40;99.90;;;;;;6245280;23;20035;-74
2024/02/11 13:20:45;;;;;;;15.02;4.65;;;12.40;99.90;;;;;;6245851;22;20004;-74
2024/02/11 13:23:11;;;;;;;17.05;4.88;;;12.40;99.90;;;;;;6245465;22;20006;-74
2024/02/11 13:25:44;;;;;;;21.88;4.18;;;12.40;99.90;;;;;;6245687;22;20075;-74
2024/02/11 13:28:09;;;;;;;;;;;12.40;99.90;;;;;;6246051;22;20011;-74
2024/02/11 13:30:39;;;;;;;14.20;4.00;;;12.40;99.90;;;;;;6245402;22;19925;-74
2024/02/11 13:33:09;;;;;;;20.38;3.03;;;12.40;99.90;;;;;;6246762;22;20012;-74
2024/02/11 13:35:40;;;;;;;16.73;2.90;;;12.40;99.90;;;;;;6245244;23;20298;-74
2024/02/11 13:38:05;;;;;;;9.82;2.40;;;12.40;99.90;;;;;;6245942;22;20015;-74
2024/02/11 13:40:32;;;;;;;10.23;2.53;;;12.40;99.90;;;;;;6246268;23;20001;-74
2024/02/11 13:43:03;;;;;;;9.82;2.28;;;12.40;99.90;;;;;;6245716;23;20000;-74
2024/02/11 13:59:57;;;;;;;7.20;1.50;;;12.40;99.90;;;;;;6036140;23;20014;-74
2024/02/11 14:07:05;;;;;;;3.40;1.05;;;12.30;99.90;;;;;;6020195;23;20014;-74
2024/02/11 14:12:45;;;;;;;7.85;1.63;;;12.30;99.90;;;;;;5976838;24;20043;-74
2024/02/11 14:15:13;;;;;;;4.88;1.30;;;12.30;99.90;;;;;;6056154;23;20014;-73
2024/02/11 14:17:46;;;;;;;5.00;1.30;;;12.30;99.90;;;;;;6035776;23;20007;-73
2024/02/11 14:20:12;;;;;;;;;;;12.30;99.90;;;;;;6155229;22;20370;-74
2024/02/11 14:22:40;;;;;;;3.28;1.05;;;12.30;99.90;;;;;;6245114;22;19954;-74
2024/02/11 14:25:08;;;;;;;4.40;1.27;;;12.30;99.90;;;;;;6245500;22;20007;-73
2024/02/11 14:27:34;;;;;;;4.30;1.40;;;12.30;99.90;;;;;;6245541;22;20027;-74
2024/02/11 14:30:00;;;;;;;7.32;1.75;;;12.30;99.90;;;;;;6244846;23;20008;-73
2024/02/11 14:32:26;;;;;;;7.07;1.33;;;12.30;99.90;;;;;;6244992;23;20042;-73
2024/02/11 14:34:55;;;;;;;5.63;1.60;;;12.30;99.90;;;;;;6245013;22;20434;-74
2024/02/11 14:37:21;;;;;;;4.70;1.40;;;12.30;99.90;;;;;;6244980;23;20465;-74
2024/02/11 14:39:47;;;;;;;7.13;1.80;;;12.30;99.90;;;;;;6245326;22;20004;-74
2024/02/11 14:42:12;;;;;;;7.00;2.25;;;12.20;99.90;;;;;;6244885;22;20155;-74
2024/02/11 14:44:40;;;;;;;5.18;1.92;;;12.30;99.90;;;;;;6244560;22;20036;-74
2024/02/11 14:47:06;;;;;;;7.03;1.90;;;12.30;99.90;;;;;;6245365;22;20083;-74
2024/02/11 14:49:33;;;;;;;5.90;1.67;;;12.30;99.90;;;;;;6245216;22;20039;-74
2024/02/11 14:51:59;;;;;;;6.85;1.80;;;12.30;99.90;;;;;;6245210;23;20004;-74
2024/02/11 14:54:25;;;;;;;6.82;2.15;;;12.30;99.90;;;;;;6245281;22;20095;-74
2024/02/11 14:56:51;;;;;;;6.65;1.60;;;12.30;99.90;;;;;;6244993;22;20431;-74
2024/02/11 14:59:18;;;;;;;8.73;2.00;;;12.30;99.90;;;;;;6242177;22;20052;-74
2024/02/11 15:01:43;;;;;;;5.95;1.50;;;12.30;99.90;;;;;;6244661;22;20000;-74
2024/02/11 15:04:09;;;;;;;8.68;1.52;;;12.30;99.90;;;;;;6243416;23;20453;-74
2024/02/11 15:06:35;;;;;;;7.28;1.80;;;12.40;99.90;;;;;;6245166;22;20003;-75
2024/02/11 15:09:04;;;;;;;5.63;1.95;;;12.30;99.90;;;;;;6244859;23;20035;-75
2024/02/11 15:11:30;;;;;;;5.70;1.70;;;12.30;99.90;;;;;;6243999;22;20000;-74
2024/02/11 15:14:00;;;;;;;7.88;2.17;;;12.30;99.90;;;;;;6244188;22;20018;-74
2024/02/11 15:16:26;;;;;;;10.35;2.20;;;12.30;99.90;;;;;;6245810;23;20001;-75
2024/02/11 15:18:52;;;;;;;6.38;1.77;;;12.30;99.90;;;;;;6245541;22;20373;-74
2024/02/11 15:21:18;;;;;;;9.00;3.30;;;12.30;99.90;;;;;;6246556;23;20000;-75
2024/02/11 15:23:52;;;;;;;11.30;4.68;;;12.30;99.90;;;;;;6248201;23;20323;-74
2024/02/11 15:53:41;;;;;;;10.25;2.22;;;12.20;99.90;;;;;;6013458;23;20132;-74
2024/02/11 15:56:07;;;;;;;9.50;2.58;;;12.30;99.90;;;;;;6245740;23;20334;-74
2024/02/11 15:58:33;;;;;;;8.85;2.22;;;12.30;99.90;;;;;;6245695;23;20335;-74
2024/02/11 16:00:59;;;;;;;6.65;2.28;;;12.20;99.90;;;;;;6247390;22;20003;-74
2024/02/11 16:03:24;;;;;;;8.75;2.90;;;12.20;99.90;;;;;;6245578;23;20008;-74
2024/02/11 16:05:51;;;;;;;7.55;3.25;;;12.20;99.90;;;;;;6247233;22;20079;-74
2024/02/11 16:08:17;;;;;;;7.75;2.88;;;12.20;99.90;;;;;;6245637;23;20342;-74
2024/02/11 16:10:43;;;;;;;10.45;3.20;;;12.20;99.90;;;;;;6247227;22;20000;-74
2024/02/11 16:13:09;;;;;;;9.50;2.83;;;12.20;99.90;;;;;;6246972;22;20008;-74
2024/02/11 16:15:35;;;;;;;8.20;3.40;;;12.20;99.90;;;;;;6247124;22;20007;-74
2024/02/11 16:18:02;;;;;;;12.88;3.28;;;12.20;99.90;;;;;;6246991;22;20026;-74